createdAt,value
2023-04-30T00:00:09.748Z,22.48
2023-04-30T00:03:00.232Z,21.60
2023-04-30T00:05:27.526Z,20.27
2023-04-30T00:07:55.108Z,23.23
2023-04-30T00:10:22.260Z,21.35
2023-04-30T00:12:49.764Z,20.38
2023-04-30T00:15:17.032Z,17.80
2023-04-30T00:17:44.556Z,22.00
2023-04-30T00:20:12.499Z,20.63
2023-04-30T00:22:39.947Z,22.08
2023-04-30T00:25:07.476Z,23.70
2023-04-30T00:27:35.058Z,26.40
2023-04-30T00:30:02.307Z,26.42
2023-04-30T00:32:29.956Z,27.58
2023-04-30T00:34:57.260Z,24.38
2023-04-30T00:37:25.150Z,25.77
2023-04-30T00:39:52.842Z,26.83
2023-04-30T00:42:20.682Z,21.83
2023-04-30T00:44:47.795Z,21.23
2023-04-30T00:47:15.259Z,25.45
2023-04-30T00:49:42.471Z,26.70
2023-04-30T00:52:10.011Z,27.73
2023-04-30T00:54:37.443Z,23.70
2023-04-30T00:57:07.054Z,25.80
2023-04-30T00:59:34.485Z,24.95
2023-04-30T01:02:03.369Z,25.63
2023-04-30T01:04:31.128Z,26.27
2023-04-30T01:06:58.473Z,27.40
2023-04-30T01:09:25.864Z,28.38
2023-04-30T01:12:19.267Z,26.02
2023-04-30T01:15:24.360Z,30.00
2023-04-30T01:18:04.382Z,25.90
2023-04-30T01:20:32.473Z,24.63
2023-04-30T01:23:20.279Z,26.63
2023-04-30T01:26:11.562Z,29.70
2023-04-30T01:28:40.225Z,26.98
2023-04-30T01:31:18.872Z,25.58
2023-04-30T01:33:46.453Z,27.63
2023-04-30T01:36:32.293Z,29.35
2023-04-30T01:39:30.523Z,24.98
2023-04-30T01:42:18.956Z,27.42
2023-04-30T01:44:59.332Z,31.40
2023-04-30T01:47:35.731Z,28.98
2023-04-30T01:50:26.874Z,27.63
2023-04-30T01:52:56.776Z,23.88
2023-04-30T01:55:28.778Z,30.45
2023-04-30T01:57:58.726Z,28.20
2023-04-30T02:00:27.550Z,27.50
2023-04-30T02:02:56.361Z,32.70
2023-04-30T02:05:23.769Z,25.92
2023-04-30T02:07:52.105Z,25.20
2023-04-30T02:10:23.012Z,26.48
2023-04-30T02:12:50.523Z,28.08
2023-04-30T02:15:18.076Z,27.33
2023-04-30T02:17:45.307Z,24.73
2023-04-30T02:20:13.090Z,27.08
2023-04-30T02:22:40.271Z,24.45
2023-04-30T02:25:07.960Z,23.48
2023-04-30T02:27:35.234Z,23.05
2023-04-30T02:30:03.282Z,26.23
2023-04-30T02:32:31.005Z,23.33
2023-04-30T02:34:58.614Z,24.50
2023-04-30T02:37:26.016Z,24.42
2023-04-30T02:39:53.941Z,25.70
2023-04-30T02:42:21.479Z,27.38
2023-04-30T02:44:48.883Z,29.13
2023-04-30T02:47:16.108Z,26.92
2023-04-30T02:49:43.607Z,25.75
2023-04-30T02:52:10.960Z,23.13
2023-04-30T02:54:38.669Z,26.58
2023-04-30T02:57:07.095Z,26.08
2023-04-30T02:59:34.810Z,27.77
2023-04-30T03:02:02.120Z,27.05
2023-04-30T03:04:30.892Z,24.25
2023-04-30T03:06:58.218Z,24.90
2023-04-30T03:09:25.798Z,23.50
2023-04-30T03:11:52.963Z,23.92
2023-04-30T03:14:20.421Z,25.98
2023-04-30T03:16:48.182Z,25.33
2023-04-30T03:19:15.711Z,31.23
2023-04-30T03:21:42.887Z,29.23
2023-04-30T03:24:10.244Z,28.63
2023-04-30T03:26:37.375Z,27.88
2023-04-30T03:29:04.703Z,26.75
2023-04-30T03:31:31.928Z,23.38
2023-04-30T03:33:59.518Z,16.05
2023-04-30T03:36:27.435Z,18.88
2023-04-30T03:38:54.961Z,17.42
2023-04-30T03:41:23.364Z,15.68
2023-04-30T03:43:50.871Z,13.77
2023-04-30T03:46:18.310Z,13.82
2023-04-30T03:48:46.073Z,20.23
2023-04-30T03:51:13.273Z,15.07
2023-04-30T03:53:40.751Z,13.30
2023-04-30T03:56:08.253Z,15.23
2023-04-30T03:58:35.699Z,15.75
2023-04-30T04:01:03.892Z,18.02
2023-04-30T04:03:32.293Z,15.25
2023-04-30T04:05:59.553Z,13.85
2023-04-30T04:08:27.055Z,14.82
2023-04-30T04:10:54.615Z,16.33
2023-04-30T04:13:22.034Z,14.40
2023-04-30T04:15:49.253Z,15.40
2023-04-30T04:18:16.643Z,17.40
2023-04-30T04:20:43.832Z,13.68
2023-04-30T04:23:11.258Z,15.70
2023-04-30T04:25:39.493Z,13.93
2023-04-30T04:28:06.975Z,15.98
2023-04-30T04:30:34.628Z,16.25
2023-04-30T04:33:02.436Z,19.73
2023-04-30T04:35:29.718Z,12.70
2023-04-30T04:37:57.795Z,16.40
2023-04-30T04:40:25.088Z,15.70
2023-04-30T04:42:52.774Z,16.13
2023-04-30T04:45:23.816Z,19.88
2023-04-30T04:47:51.949Z,15.70
2023-04-30T04:50:19.822Z,15.50
2023-04-30T04:52:47.336Z,19.83
2023-04-30T04:55:14.720Z,19.35
2023-04-30T04:57:42.629Z,20.15
2023-04-30T05:00:10.767Z,20.15
2023-04-30T05:02:38.242Z,17.00
2023-04-30T05:05:07.016Z,22.67
2023-04-30T05:07:35.228Z,21.77
2023-04-30T05:10:02.936Z,24.92
2023-04-30T05:12:31.349Z,22.13
2023-04-30T05:14:58.607Z,23.35
2023-04-30T05:17:26.430Z,24.67
2023-04-30T05:19:53.915Z,22.55
2023-04-30T05:22:21.710Z,25.42
2023-04-30T05:24:49.050Z,33.65
2023-04-30T05:27:16.901Z,21.85
2023-04-30T05:29:44.089Z,26.42
2023-04-30T05:32:11.682Z,28.65
2023-04-30T05:34:38.963Z,24.55
2023-04-30T05:37:06.269Z,22.90
2023-04-30T05:39:33.427Z,25.02
2023-04-30T05:42:02.204Z,22.83
2023-04-30T05:44:30.542Z,24.30
2023-04-30T05:46:58.006Z,24.23
2023-04-30T05:49:25.236Z,25.08
2023-04-30T05:51:52.840Z,25.30
2023-04-30T05:54:20.045Z,26.77
2023-04-30T05:56:47.468Z,33.03
2023-04-30T05:59:14.668Z,23.42
2023-04-30T06:01:42.486Z,23.63
2023-04-30T06:04:09.737Z,24.45
2023-04-30T06:06:37.359Z,23.75
2023-04-30T06:09:04.671Z,22.30
2023-04-30T06:11:32.121Z,23.58
2023-04-30T06:13:59.518Z,21.75
2023-04-30T06:16:26.976Z,20.63
2023-04-30T06:18:54.255Z,19.75
2023-04-30T06:21:21.794Z,19.65
2023-04-30T06:23:49.029Z,20.85
2023-04-30T06:26:16.592Z,22.02
2023-04-30T06:28:43.777Z,21.92
2023-04-30T06:31:11.422Z,23.80
2023-04-30T06:33:38.718Z,16.65
2023-04-30T06:36:06.380Z,16.50
2023-04-30T06:38:33.566Z,19.40
2023-04-30T06:41:01.106Z,14.38
2023-04-30T06:43:28.533Z,9.98
2023-04-30T06:45:56.052Z,15.65
2023-04-30T06:48:23.314Z,13.82
2023-04-30T06:50:51.000Z,17.40
2023-04-30T06:53:18.204Z,13.48
2023-04-30T06:55:47.151Z,8.57
2023-04-30T06:58:14.645Z,7.22
2023-04-30T07:00:42.761Z,12.15
2023-04-30T07:03:09.967Z,5.53
2023-04-30T07:05:37.426Z,10.70
2023-04-30T07:08:04.929Z,8.55
2023-04-30T07:10:32.512Z,13.55
2023-04-30T07:12:59.764Z,10.10
2023-04-30T07:15:27.344Z,12.95
2023-04-30T07:17:55.364Z,9.75
2023-04-30T07:20:23.013Z,12.43
2023-04-30T07:22:50.212Z,17.92
2023-04-30T07:25:17.957Z,12.32
2023-04-30T07:27:46.019Z,11.07
2023-04-30T07:30:13.446Z,7.82
2023-04-30T07:32:41.657Z,9.13
2023-04-30T07:35:09.839Z,7.10
2023-04-30T07:37:39.086Z,13.27
2023-04-30T07:40:15.350Z,11.00
2023-04-30T07:42:45.309Z,9.77
2023-04-30T07:45:13.454Z,7.82
2023-04-30T07:47:40.625Z,7.97
2023-04-30T07:50:08.432Z,11.43
2023-04-30T07:52:35.925Z,9.65
2023-04-30T07:55:03.503Z,10.65
2023-04-30T07:57:30.706Z,7.72
2023-04-30T07:59:58.413Z,8.93
2023-04-30T08:02:25.946Z,11.50
2023-04-30T08:04:53.645Z,13.82
2023-04-30T08:07:22.431Z,10.45
2023-04-30T08:09:49.946Z,7.85
2023-04-30T08:12:17.175Z,10.43
2023-04-30T08:14:44.553Z,11.13
2023-04-30T08:17:12.142Z,8.73
2023-04-30T08:19:39.489Z,10.48
2023-04-30T08:22:06.677Z,10.20
2023-04-30T08:24:34.056Z,6.90
2023-04-30T08:27:04.028Z,9.70
2023-04-30T08:29:31.583Z,13.57
2023-04-30T08:32:03.455Z,12.15
2023-04-30T08:34:31.483Z,6.07
2023-04-30T08:36:58.772Z,8.00
2023-04-30T08:39:26.254Z,11.05
2023-04-30T08:41:57.176Z,11.13
2023-04-30T08:44:25.743Z,6.75
2023-04-30T08:46:57.922Z,8.98
2023-04-30T08:49:25.623Z,11.65
2023-04-30T08:51:52.931Z,8.10
2023-04-30T08:54:21.133Z,10.80
2023-04-30T08:56:48.623Z,8.07
2023-04-30T08:59:16.221Z,7.05
2023-04-30T09:01:43.971Z,7.32
2023-04-30T09:04:11.837Z,6.95
2023-04-30T09:06:39.205Z,7.85
2023-04-30T09:09:15.141Z,6.25
2023-04-30T09:11:42.937Z,5.38
2023-04-30T09:14:10.646Z,11.50
2023-04-30T09:16:49.251Z,10.25
2023-04-30T09:19:35.171Z,5.85
2023-04-30T09:22:22.656Z,7.15
2023-04-30T09:24:51.483Z,4.82
2023-04-30T09:27:20.137Z,4.40
2023-04-30T09:29:47.870Z,4.22
2023-04-30T09:32:15.200Z,5.07
2023-04-30T09:34:43.627Z,6.53
2023-04-30T09:37:11.601Z,6.28
2023-04-30T09:39:55.757Z,6.70
2023-04-30T09:42:23.235Z,9.60
2023-04-30T09:44:53.803Z,3.72
2023-04-30T09:47:21.277Z,4.88
2023-04-30T09:49:52.560Z,5.80
2023-04-30T09:52:20.993Z,4.55
2023-04-30T09:54:48.452Z,6.35
2023-04-30T09:57:16.463Z,5.75
2023-04-30T09:59:46.200Z,6.38
2023-04-30T10:02:17.351Z,7.03
2023-04-30T10:04:45.875Z,5.85
2023-04-30T10:07:18.176Z,4.25
2023-04-30T10:10:05.290Z,3.67
2023-04-30T10:12:54.745Z,4.72
2023-04-30T10:15:40.032Z,8.20
2023-04-30T10:18:11.885Z,6.65
2023-04-30T10:20:40.342Z,7.32
2023-04-30T10:23:08.597Z,5.38
2023-04-30T10:25:36.082Z,4.95
2023-04-30T10:28:04.811Z,5.47
2023-04-30T10:30:32.937Z,4.72
2023-04-30T10:33:07.164Z,3.92
2023-04-30T10:35:46.200Z,4.30
2023-04-30T10:38:18.843Z,13.13
2023-04-30T10:40:48.094Z,10.02
2023-04-30T10:43:18.777Z,3.30
2023-04-30T10:45:46.327Z,5.28
2023-04-30T10:48:15.530Z,4.93
2023-04-30T10:50:46.276Z,4.15
2023-04-30T10:53:19.861Z,5.00
2023-04-30T10:55:49.303Z,2.75
2023-04-30T10:58:34.521Z,2.90
2023-04-30T11:01:08.851Z,7.55
2023-04-30T11:03:36.559Z,4.78
2023-04-30T11:06:20.462Z,5.05
2023-04-30T11:08:47.783Z,5.22
2023-04-30T11:11:21.476Z,3.47
2023-04-30T11:13:59.511Z,10.73
2023-04-30T11:16:31.511Z,6.15
2023-04-30T11:19:13.613Z,4.53
2023-04-30T11:22:04.254Z,12.98
2023-04-30T11:24:50.984Z,4.65
2023-04-30T11:27:23.082Z,5.72
2023-04-30T11:29:51.798Z,4.25
2023-04-30T11:32:20.931Z,4.00
2023-04-30T11:34:49.133Z,5.20
2023-04-30T11:37:20.888Z,6.88
2023-04-30T11:39:48.679Z,4.07
2023-04-30T11:42:19.901Z,5.82
2023-04-30T11:44:47.619Z,5.15
2023-04-30T11:47:15.619Z,6.32
2023-04-30T11:49:45.956Z,3.80
2023-04-30T11:52:13.934Z,3.97
2023-04-30T11:54:41.209Z,3.83
2023-04-30T11:57:08.730Z,3.20
2023-04-30T11:59:43.992Z,5.95
2023-04-30T12:02:15.810Z,5.28
2023-04-30T12:04:48.554Z,2.17
2023-04-30T12:07:15.961Z,3.55
2023-04-30T12:09:56.903Z,2.63
2023-04-30T12:12:30.548Z,4.78
2023-04-30T12:17:34.837Z,7.03
2023-04-30T12:20:02.249Z,5.15
2023-04-30T12:22:29.747Z,3.70
2023-04-30T12:24:59.098Z,4.22
2023-04-30T12:27:26.546Z,3.92
2023-04-30T12:29:55.204Z,6.57
2023-04-30T12:32:23.039Z,3.55
2023-04-30T12:34:50.399Z,4.38
2023-04-30T12:37:17.952Z,6.18
2023-04-30T12:39:45.244Z,4.45
2023-04-30T12:42:12.782Z,4.95
2023-04-30T12:44:46.894Z,4.25
2023-04-30T12:47:14.699Z,4.57
2023-04-30T12:49:41.853Z,5.75
2023-04-30T12:52:11.578Z,2.30
2023-04-30T12:54:39.726Z,5.70
2023-04-30T12:57:09.285Z,3.92
2023-04-30T12:59:56.310Z,5.10
2023-04-30T13:02:25.595Z,7.50
2023-04-30T13:04:53.937Z,2.45
2023-04-30T13:07:21.680Z,4.20
2023-04-30T13:09:48.905Z,3.05
2023-04-30T13:12:16.362Z,5.03
2023-04-30T13:14:43.534Z,7.45
2023-04-30T13:17:13.947Z,4.18
2023-04-30T13:19:41.521Z,4.85
2023-04-30T13:22:08.971Z,3.50
2023-04-30T13:24:36.256Z,6.28
2023-04-30T13:27:04.109Z,2.38
2023-04-30T13:29:32.033Z,3.40
2023-04-30T13:31:59.548Z,4.60
2023-04-30T13:34:26.860Z,7.63
2023-04-30T13:36:54.802Z,4.72
2023-04-30T13:39:22.184Z,7.35
2023-04-30T13:41:49.618Z,6.20
2023-04-30T13:44:17.353Z,4.40
2023-04-30T13:46:45.645Z,6.10
2023-04-30T13:49:13.102Z,8.43
2023-04-30T13:51:40.548Z,5.72
2023-04-30T13:54:07.689Z,6.75
2023-04-30T13:56:35.653Z,2.25
2023-04-30T13:59:03.148Z,7.85
2023-04-30T14:01:33.019Z,3.95
2023-04-30T14:04:00.457Z,4.55
2023-04-30T14:06:29.708Z,3.88
2023-04-30T14:08:56.985Z,3.53
2023-04-30T14:11:24.504Z,3.03
2023-04-30T14:13:51.759Z,5.72
2023-04-30T14:16:20.933Z,6.70
2023-04-30T14:18:48.484Z,4.55
2023-04-30T14:21:16.142Z,6.57
2023-04-30T14:23:46.564Z,4.00
2023-04-30T14:26:14.727Z,7.15
2023-04-30T14:28:41.795Z,7.13
2023-04-30T14:31:10.542Z,5.80
2023-04-30T14:33:37.776Z,3.22
2023-04-30T14:36:06.274Z,3.63
2023-04-30T14:38:33.604Z,5.22
2023-04-30T14:41:01.076Z,5.22
2023-04-30T14:43:28.402Z,6.15
2023-04-30T14:45:55.966Z,4.30
2023-04-30T14:48:23.189Z,4.88
2023-04-30T14:50:51.744Z,3.63
2023-04-30T14:53:18.846Z,2.85
2023-04-30T14:55:46.160Z,3.45
2023-04-30T14:58:13.298Z,4.47
2023-04-30T15:00:40.884Z,4.63
2023-04-30T15:03:08.335Z,5.35
2023-04-30T15:05:36.640Z,8.73
2023-04-30T15:08:03.772Z,3.90
2023-04-30T15:10:31.237Z,12.55
2023-04-30T15:12:58.712Z,3.47
2023-04-30T15:15:29.648Z,6.57
2023-04-30T15:17:58.339Z,7.63
2023-04-30T15:20:25.616Z,5.63
2023-04-30T15:22:55.009Z,9.07
2023-04-30T15:25:24.165Z,7.25
2023-04-30T15:27:54.411Z,5.28
2023-04-30T15:30:24.511Z,3.70
2023-04-30T15:32:51.956Z,15.88
2023-04-30T15:35:19.171Z,2.67
2023-04-30T15:37:46.642Z,4.10
2023-04-30T15:40:15.731Z,5.60
2023-04-30T15:42:44.001Z,2.47
2023-04-30T15:45:11.200Z,4.75
2023-04-30T15:47:39.072Z,3.17
2023-04-30T15:50:07.308Z,7.80
2023-04-30T15:52:34.879Z,6.28
2023-04-30T15:55:02.303Z,4.43
2023-04-30T15:57:29.786Z,9.38
2023-04-30T15:59:57.576Z,2.72
2023-04-30T16:02:25.229Z,3.00
2023-04-30T16:04:52.917Z,7.53
2023-04-30T16:07:20.279Z,4.07
2023-04-30T16:09:49.154Z,4.20
2023-04-30T16:12:16.643Z,2.60
2023-04-30T16:14:43.915Z,3.58
2023-04-30T16:17:11.387Z,1.88
2023-04-30T16:19:38.701Z,5.18
2023-04-30T16:22:06.198Z,8.73
2023-04-30T16:24:33.484Z,6.18
2023-04-30T16:27:01.238Z,6.25
2023-04-30T16:29:28.587Z,4.25
2023-04-30T16:31:56.450Z,6.60
2023-04-30T16:34:24.022Z,4.85
2023-04-30T16:36:51.402Z,4.43
2023-04-30T16:39:18.550Z,3.63
2023-04-30T16:41:46.013Z,3.58
2023-04-30T16:44:13.415Z,3.22
2023-04-30T16:46:40.880Z,2.45
2023-04-30T16:49:07.961Z,3.55
2023-04-30T16:51:35.335Z,3.35
2023-04-30T16:54:02.895Z,3.55
2023-04-30T16:56:30.376Z,4.43
2023-04-30T16:58:57.560Z,5.43
2023-04-30T17:01:25.090Z,4.53
2023-04-30T17:03:52.446Z,4.07
2023-04-30T17:06:20.093Z,5.05
2023-04-30T17:08:47.329Z,4.65
2023-04-30T17:11:19.089Z,7.75
2023-04-30T17:13:46.352Z,9.15
2023-04-30T17:16:13.866Z,5.60
2023-04-30T17:18:40.932Z,4.68
2023-04-30T17:21:08.256Z,8.77
2023-04-30T17:23:35.450Z,14.25
2023-04-30T17:26:03.988Z,7.55
2023-04-30T17:28:32.799Z,3.88
2023-04-30T17:31:06.723Z,6.93
2023-04-30T17:33:34.306Z,6.03
2023-04-30T17:36:01.817Z,7.20
2023-04-30T17:38:29.210Z,5.50
2023-04-30T17:40:57.844Z,4.35
2023-04-30T17:43:25.164Z,3.58
2023-04-30T17:45:53.493Z,11.15
2023-04-30T17:48:21.111Z,10.98
2023-04-30T17:50:48.639Z,7.22
2023-04-30T17:53:15.733Z,3.88
2023-04-30T17:55:43.257Z,7.68
2023-04-30T17:58:11.553Z,8.35
2023-04-30T18:00:39.526Z,11.32
2023-04-30T18:03:07.320Z,5.88
2023-04-30T18:05:35.893Z,9.55
2023-04-30T18:08:03.618Z,7.57
2023-04-30T18:10:30.903Z,7.60
2023-04-30T18:12:59.021Z,8.38
2023-04-30T18:15:27.268Z,9.48
2023-04-30T18:17:54.629Z,9.50
2023-04-30T18:20:22.316Z,8.77
2023-04-30T18:22:49.651Z,8.63
2023-04-30T18:25:17.960Z,8.40
2023-04-30T18:27:45.056Z,7.72
2023-04-30T18:30:12.858Z,13.63
2023-04-30T18:32:41.958Z,10.50
2023-04-30T18:35:10.255Z,10.07
2023-04-30T18:37:37.401Z,7.45
2023-04-30T18:40:05.154Z,12.57
2023-04-30T18:42:33.620Z,6.53
2023-04-30T18:45:01.404Z,13.13
2023-04-30T18:47:28.699Z,8.02
2023-04-30T18:49:56.228Z,7.50
2023-04-30T18:52:24.063Z,11.02
2023-04-30T18:54:52.154Z,6.38
2023-04-30T18:57:19.562Z,7.25
2023-04-30T18:59:47.715Z,9.38
2023-04-30T19:02:15.637Z,9.65
2023-04-30T19:04:43.012Z,10.05
2023-04-30T19:07:10.333Z,11.90
2023-04-30T19:09:37.868Z,7.20
2023-04-30T19:12:05.188Z,10.32
2023-04-30T19:14:32.966Z,22.98
2023-04-30T19:17:01.093Z,14.52
2023-04-30T19:19:28.699Z,27.20
2023-04-30T19:21:56.159Z,11.68
2023-04-30T19:24:25.221Z,10.55
2023-04-30T19:26:52.616Z,11.90
2023-04-30T19:29:20.050Z,11.18
2023-04-30T19:31:47.332Z,10.50
2023-04-30T19:34:15.126Z,22.38
2023-04-30T19:36:44.189Z,14.30
2023-04-30T19:39:12.031Z,15.45
2023-04-30T19:41:39.313Z,16.27
2023-04-30T19:44:08.028Z,16.80
2023-04-30T19:46:35.417Z,15.70
2023-04-30T19:49:04.012Z,18.05
2023-04-30T19:51:31.974Z,31.92
2023-04-30T19:53:59.483Z,18.45
2023-04-30T19:56:26.704Z,20.23
2023-04-30T19:58:54.163Z,28.33
2023-04-30T20:01:21.362Z,22.15
2023-04-30T20:03:49.290Z,18.95
2023-04-30T20:06:16.783Z,18.92
2023-04-30T20:08:44.256Z,19.73
2023-04-30T20:11:11.643Z,21.13
2023-04-30T20:13:39.011Z,21.58
2023-04-30T20:16:06.762Z,26.63
2023-04-30T20:18:34.180Z,25.83
2023-04-30T20:21:01.379Z,25.85
2023-04-30T20:23:28.777Z,28.80
2023-04-30T20:25:56.097Z,25.00
2023-04-30T20:28:23.591Z,21.85
2023-04-30T20:30:50.811Z,20.35
2023-04-30T20:33:19.049Z,22.85
2023-04-30T20:35:47.298Z,23.80
2023-04-30T20:38:18.004Z,25.27
2023-04-30T20:40:47.205Z,27.60
2023-04-30T20:43:15.273Z,18.80
2023-04-30T20:45:44.850Z,19.35
2023-04-30T20:48:12.591Z,21.10
2023-04-30T20:50:40.256Z,15.65
2023-04-30T20:53:09.675Z,24.20
2023-04-30T20:55:38.399Z,17.88
2023-04-30T20:58:05.853Z,18.02
2023-04-30T21:00:33.041Z,19.95
2023-04-30T21:03:00.760Z,19.27
2023-04-30T21:05:29.184Z,17.63
2023-04-30T21:08:01.444Z,21.23
2023-04-30T21:10:36.461Z,30.05
2023-04-30T21:13:05.825Z,26.83
2023-04-30T21:15:35.392Z,22.80
2023-04-30T21:18:03.228Z,22.95
2023-04-30T21:20:31.802Z,24.17
2023-04-30T21:22:59.750Z,18.92
2023-04-30T21:25:27.349Z,19.38
2023-04-30T21:27:55.379Z,23.17
2023-04-30T21:30:25.657Z,19.70
2023-04-30T21:32:59.054Z,20.83
2023-04-30T21:37:55.953Z,21.92
2023-04-30T21:40:23.119Z,23.30
2023-04-30T21:42:51.309Z,20.15
2023-04-30T21:45:18.517Z,20.77
2023-04-30T21:47:47.649Z,17.70
2023-04-30T21:50:15.058Z,22.70
2023-04-30T21:52:42.347Z,18.60
2023-04-30T21:55:09.826Z,22.35
2023-04-30T21:57:37.198Z,22.98
2023-04-30T22:00:06.544Z,25.90
2023-04-30T22:02:34.995Z,24.30
2023-04-30T22:05:02.342Z,19.65
2023-04-30T22:07:29.833Z,20.30
2023-04-30T22:09:57.583Z,21.42
2023-04-30T22:12:25.342Z,24.95
2023-04-30T22:14:53.650Z,31.23
2023-04-30T22:17:21.875Z,32.92
2023-04-30T22:19:48.954Z,30.05
2023-04-30T22:22:16.678Z,28.13
2023-04-30T22:24:43.843Z,26.13
2023-04-30T22:27:11.333Z,26.50
2023-04-30T22:29:38.606Z,22.85
2023-04-30T22:32:07.225Z,29.20
2023-04-30T22:34:40.253Z,22.52
2023-04-30T22:39:35.399Z,20.45
2023-04-30T22:42:04.029Z,21.55
2023-04-30T22:44:31.425Z,24.17
2023-04-30T22:46:59.233Z,26.65
2023-04-30T22:49:31.296Z,25.25
2023-04-30T22:52:00.064Z,22.50
2023-04-30T22:54:27.417Z,26.02
2023-04-30T22:56:55.484Z,24.65
2023-04-30T22:59:22.627Z,27.73
2023-04-30T23:01:50.005Z,25.90
2023-04-30T23:04:17.284Z,31.52
2023-04-30T23:06:44.966Z,30.30
2023-04-30T23:09:12.813Z,24.10
2023-04-30T23:11:40.679Z,31.95
2023-04-30T23:14:08.238Z,22.80
2023-04-30T23:16:35.922Z,24.13
2023-04-30T23:19:03.087Z,30.42
2023-04-30T23:21:31.297Z,24.38
2023-04-30T23:23:58.465Z,27.45
2023-04-30T23:26:25.910Z,23.95
2023-04-30T23:28:55.313Z,24.33
2023-04-30T23:31:22.886Z,30.00
2023-04-30T23:33:50.061Z,25.33
2023-04-30T23:36:17.535Z,20.98
2023-04-30T23:38:46.656Z,25.80
2023-04-30T23:41:14.664Z,28.30
2023-04-30T23:43:41.922Z,26.45
2023-04-30T23:46:09.377Z,21.58
2023-04-30T23:48:36.751Z,26.55
2023-04-30T23:51:05.452Z,24.40
2023-04-30T23:53:32.564Z,23.95
2023-04-30T23:56:00.169Z,30.27
2023-04-30T23:58:30.121Z,33.75
